Time;durP1;ratioP1;P1;durP2;ratioP2;P2;SDS_P1;SDS_P2;PMS_P1;PMS_P2;Temp;Humidity;BMP_temperature;BMP_pressure;BME280_temperature;BME280_humidity;BME280_pressure;Samples;Min_cycle;Max_cycle;Signal;HPM_P1;HPM_P2
2021/12/09 00:02:12;;;;;;;0.40;0.30;;;15.90;63.80;;;;;;5055851;28;20116;-28
2021/12/09 00:04:38;;;;;;;0.45;0.45;;;16.00;63.80;;;;;;5044045;28;20135;-25
2021/12/09 00:07:03;;;;;;;1.25;0.30;;;15.90;63.80;;;;;;5045461;28;20075;-26
2021/12/09 00:09:29;;;;;;;0.38;0.35;;;16.00;64.00;;;;;;5042867;28;20052;-25
2021/12/09 00:11:55;;;;;;;0.47;0.35;;;16.00;63.90;;;;;;5026247;28;20046;-26
2021/12/09 00:14:23;;;;;;;0.63;0.40;;;16.00;63.80;;;;;;5035764;28;20046;-28
2021/12/09 00:16:49;;;;;;;0.40;0.30;;;16.00;64.00;;;;;;5045796;28;20042;-25
2021/12/09 00:19:14;;;;;;;0.40;0.25;;;16.00;63.90;;;;;;5028060;28;20046;-23
2021/12/09 00:21:40;;;;;;;0.80;0.40;;;16.00;64.00;;;;;;5039214;28;20057;-23
2021/12/09 00:24:06;;;;;;;0.50;0.50;;;15.90;63.80;;;;;;5027462;28;20095;-29
2021/12/09 00:26:31;;;;;;;2.22;0.45;;;16.00;63.80;;;;;;5032814;28;20565;-25
2021/12/09 00:28:57;;;;;;;1.58;0.63;;;15.90;63.80;;;;;;5034648;28;20097;-26
2021/12/09 00:31:23;;;;;;;0.90;0.52;;;16.00;63.90;;;;;;5057132;28;20048;-32
2021/12/09 00:33:49;;;;;;;1.23;0.73;;;16.00;63.90;;;;;;5038041;28;20057;-24
2021/12/09 00:36:27;;;;;;;0.40;0.30;;;16.00;63.90;;;;;;5037165;28;20044;-28
2021/12/09 00:38:56;;;;;;;0.77;0.40;;;16.00;64.00;;;;;;5036768;28;20106;-28
2021/12/09 00:41:22;;;;;;;0.35;0.30;;;15.90;63.80;;;;;;5056639;28;20041;-21
2021/12/09 00:43:47;;;;;;;1.00;0.40;;;15.90;63.80;;;;;;5077928;28;20044;-24
2021/12/09 00:46:13;;;;;;;0.30;0.30;;;16.00;63.90;;;;;;5077903;28;20033;-24
2021/12/09 00:48:39;;;;;;;0.50;0.28;;;15.90;63.80;;;;;;5077145;28;20056;-28
2021/12/09 00:51:05;;;;;;;0.40;0.30;;;15.90;63.80;;;;;;5077561;28;20033;-22
2021/12/09 00:53:30;;;;;;;0.45;0.40;;;16.00;63.90;;;;;;5077251;28;20048;-26
2021/12/09 00:55:56;;;;;;;0.50;0.40;;;15.90;63.70;;;;;;5077819;28;20036;-21
2021/12/09 00:58:22;;;;;;;0.63;0.40;;;16.00;63.80;;;;;;5076432;28;20049;-25
2021/12/09 01:00:47;;;;;;;0.30;0.30;;;16.00;64.50;;;;;;5075983;28;20060;-23
2021/12/09 01:03:13;;;;;;;1.48;0.40;;;15.90;63.70;;;;;;5015790;28;20050;-23
2021/12/09 01:05:39;;;;;;;0.40;0.40;;;16.00;63.80;;;;;;5024852;28;20056;-20
2021/12/09 01:08:04;;;;;;;0.50;0.40;;;15.90;63.80;;;;;;5037452;28;20448;-29
2021/12/09 01:10:30;;;;;;;0.30;0.30;;;15.90;63.60;;;;;;5036884;28;20034;-24
2021/12/09 01:12:56;;;;;;;0.40;0.30;;;15.90;63.70;;;;;;5037441;28;20049;-20
2021/12/09 01:15:21;;;;;;;0.65;0.40;;;15.90;63.70;;;;;;5036644;28;20044;-25
2021/12/09 01:17:47;;;;;;;0.85;0.45;;;15.90;63.70;;;;;;5037465;28;20045;-27
2021/12/09 01:20:14;;;;;;;0.20;0.20;;;15.90;63.70;;;;;;5037103;28;20509;-21
2021/12/09 01:22:43;;;;;;;0.52;0.38;;;15.90;63.60;;;;;;5036716;28;20045;-25
2021/12/09 01:25:11;;;;;;;0.40;0.38;;;15.90;63.80;;;;;;5037302;28;20049;-27
2021/12/09 01:27:40;;;;;;;0.40;0.30;;;15.90;63.70;;;;;;5036214;28;20105;-23
2021/12/09 01:30:10;;;;;;;1.02;0.40;;;15.90;63.70;;;;;;5037303;28;20057;-27
2021/12/09 01:32:37;;;;;;;0.40;0.30;;;15.90;63.80;;;;;;5036456;28;20518;-27
2021/12/09 01:35:03;;;;;;;0.50;0.50;;;15.90;63.80;;;;;;5036891;28;20083;-24
2021/12/09 01:37:29;;;;;;;1.65;0.47;;;15.90;63.80;;;;;;5036508;28;20048;-29
2021/12/09 01:39:55;;;;;;;0.30;0.30;;;15.90;63.70;;;;;;5043839;28;20658;-23
2021/12/09 01:42:20;;;;;;;0.47;0.30;;;15.90;63.80;;;;;;5056337;28;20490;-23
2021/12/09 01:44:46;;;;;;;0.50;0.30;;;15.90;63.80;;;;;;5056993;28;20052;-23
2021/12/09 01:47:11;;;;;;;0.30;0.20;;;15.90;63.80;;;;;;5056834;28;20228;-25
2021/12/09 01:49:37;;;;;;;0.60;0.40;;;15.90;63.80;;;;;;5055958;28;20041;-28
2021/12/09 01:52:04;;;;;;;0.65;0.47;;;15.90;63.80;;;;;;5056693;28;20059;-21
2021/12/09 01:54:30;;;;;;;0.32;0.30;;;15.90;63.70;;;;;;5056164;28;20045;-27
2021/12/09 01:56:55;;;;;;;0.30;0.20;;;15.90;63.80;;;;;;5056718;28;20049;-25
2021/12/09 01:59:21;;;;;;;2.53;0.50;;;15.90;63.80;;;;;;5055933;28;20048;-24
2021/12/09 02:01:47;;;;;;;0.65;0.57;;;15.90;63.80;;;;;;5056552;28;20569;-23
2021/12/09 02:04:12;;;;;;;0.40;0.40;;;15.90;63.70;;;;;;5056471;28;20524;-23
2021/12/09 02:06:40;;;;;;;0.40;0.30;;;15.90;63.70;;;;;;5055686;28;20049;-24
2021/12/09 02:09:07;;;;;;;0.38;0.35;;;15.90;63.70;;;;;;5056512;28;20106;-27
2021/12/09 02:11:33;;;;;;;0.40;0.35;;;15.90;63.70;;;;;;5055420;28;20483;-22
2021/12/09 02:13:59;;;;;;;0.47;0.32;;;15.90;63.80;;;;;;5054593;28;20052;-24
2021/12/09 02:16:25;;;;;;;0.63;0.28;;;15.90;63.80;;;;;;5055734;28;20139;-28
2021/12/09 02:18:51;;;;;;;0.20;0.20;;;15.90;63.80;;;;;;5056393;28;20561;-28
2021/12/09 02:21:30;;;;;;;0.40;0.40;;;15.90;63.70;;;;;;5055758;28;20068;-22
2021/12/09 02:23:59;;;;;;;0.30;0.30;;;15.90;64.60;;;;;;5055678;28;20497;-21
2021/12/09 02:26:32;;;;;;;0.60;0.25;;;15.90;63.80;;;;;;5040150;28;20077;-28
2021/12/09 02:28:58;;;;;;;0.68;0.40;;;15.90;63.70;;;;;;5036023;28;20076;-21
2021/12/09 02:31:24;;;;;;;0.45;0.20;;;15.90;63.70;;;;;;5017066;28;20053;-23
2021/12/09 02:33:50;;;;;;;0.50;0.30;;;15.90;63.70;;;;;;5036089;28;20042;-23
2021/12/09 02:36:15;;;;;;;0.50;0.28;;;15.90;63.70;;;;;;5035760;28;20045;-29
2021/12/09 02:38:44;;;;;;;0.20;0.20;;;15.90;63.60;;;;;;5035302;28;20041;-21
2021/12/09 02:41:14;;;;;;;0.22;0.20;;;15.90;63.70;;;;;;5052932;28;20489;-22
2021/12/09 02:43:40;;;;;;;0.30;0.30;;;15.90;63.70;;;;;;5055097;28;20081;-22
2021/12/09 02:46:06;;;;;;;0.55;0.40;;;15.90;63.60;;;;;;5054483;28;20071;-23
2021/12/09 02:48:31;;;;;;;0.20;0.20;;;15.90;63.70;;;;;;5054850;28;20053;-24
2021/12/09 02:50:57;;;;;;;0.57;0.30;;;15.90;63.70;;;;;;5055368;28;20131;-25
2021/12/09 02:53:23;;;;;;;0.20;0.20;;;15.90;63.60;;;;;;5055637;28;20520;-24
2021/12/09 02:55:48;;;;;;;0.35;0.35;;;15.90;63.60;;;;;;5054947;28;20071;-22
2021/12/09 02:58:14;;;;;;;0.28;0.20;;;15.90;63.50;;;;;;5055642;28;20076;-24
2021/12/09 03:00:51;;;;;;;0.95;0.40;;;15.90;63.60;;;;;;5054796;28;20517;-24
2021/12/09 03:03:17;;;;;;;0.40;0.40;;;15.90;63.60;;;;;;5055482;28;20040;-21
2021/12/09 03:05:44;;;;;;;0.30;0.22;;;15.90;64.30;;;;;;5054408;28;20037;-26
2021/12/09 03:08:11;;;;;;;0.35;0.20;;;15.90;63.50;;;;;;5055423;28;20459;-24
2021/12/09 03:10:36;;;;;;;0.30;0.30;;;15.90;63.50;;;;;;5054574;28;20052;-21
2021/12/09 03:13:05;;;;;;;0.30;0.25;;;15.90;63.50;;;;;;5055200;28;20076;-23
2021/12/09 03:15:32;;;;;;;0.32;0.20;;;15.90;63.40;;;;;;5054615;28;20080;-23
2021/12/09 03:17:58;;;;;;;0.50;0.20;;;15.90;63.40;;;;;;5053940;28;20044;-23
2021/12/09 03:20:23;;;;;;;0.73;0.40;;;15.90;63.40;;;;;;5054881;28;20049;-24
2021/12/09 03:22:49;;;;;;;0.30;0.30;;;15.90;63.40;;;;;;5054607;28;20135;-28
2021/12/09 03:25:16;;;;;;;0.25;0.20;;;15.90;63.40;;;;;;5055020;28;20037;-23
2021/12/09 03:27:42;;;;;;;0.32;0.30;;;15.90;63.30;;;;;;5045368;28;20048;-26
2021/12/09 03:30:09;;;;;;;0.30;0.30;;;15.90;63.30;;;;;;5035219;28;20037;-24
2021/12/09 03:32:35;;;;;;;0.93;0.30;;;15.90;63.30;;;;;;5034409;28;20095;-21
2021/12/09 03:35:01;;;;;;;0.40;0.30;;;15.90;63.20;;;;;;5034938;28;20045;-23
2021/12/09 03:37:29;;;;;;;0.40;0.30;;;15.90;63.30;;;;;;5035212;28;20057;-24
2021/12/09 03:39:55;;;;;;;0.20;0.20;;;15.80;63.20;;;;;;5041289;28;20037;-22
2021/12/09 03:42:24;;;;;;;0.30;0.30;;;15.80;63.20;;;;;;5054882;28;20155;-24
2021/12/09 03:44:49;;;;;;;0.30;0.30;;;15.80;63.50;;;;;;5054240;28;20124;-27
2021/12/09 03:47:17;;;;;;;0.30;0.30;;;15.80;63.20;;;;;;5053667;28;20076;-25
2021/12/09 03:49:42;;;;;;;0.30;0.20;;;15.80;63.10;;;;;;5054147;28;20049;-27
2021/12/09 03:52:09;;;;;;;0.28;0.28;;;15.80;63.20;;;;;;5054796;28;20072;-21
2021/12/09 03:54:34;;;;;;;0.35;0.35;;;15.80;63.10;;;;;;5054382;28;20513;-21
2021/12/09 03:57:00;;;;;;;0.20;0.20;;;15.80;63.10;;;;;;5054846;28;20237;-25
2021/12/09 03:59:26;;;;;;;0.50;0.30;;;15.80;63.10;;;;;;5054990;28;20517;-25
2021/12/09 04:01:51;;;;;;;0.32;0.32;;;15.80;63.10;;;;;;5054048;28;20045;-22
2021/12/09 04:04:17;;;;;;;0.20;0.20;;;15.80;63.00;;;;;;5054742;28;20037;-24
2021/12/09 04:06:43;;;;;;;0.28;0.28;;;15.80;63.10;;;;;;5063861;28;20050;-23
2021/12/09 04:09:10;;;;;;;0.25;0.20;;;15.80;63.00;;;;;;5070816;28;20405;-23
2021/12/09 04:11:36;;;;;;;0.20;0.20;;;15.90;63.00;;;;;;5045556;28;20056;-21
2021/12/09 04:14:02;;;;;;;0.20;0.20;;;15.80;63.00;;;;;;5029366;28;20049;-23
2021/12/09 04:16:29;;;;;;;0.50;0.30;;;15.80;63.00;;;;;;5034796;28;20402;-24
2021/12/09 04:18:54;;;;;;;0.75;0.47;;;15.80;63.00;;;;;;5054069;28;20072;-24
2021/12/09 04:21:20;;;;;;;0.47;0.30;;;15.80;62.90;;;;;;5054263;28;20533;-24
2021/12/09 04:23:45;;;;;;;0.50;0.20;;;15.80;62.90;;;;;;5053897;28;20037;-23
2021/12/09 04:26:11;;;;;;;0.30;0.22;;;15.80;62.90;;;;;;5054563;28;20037;-26
2021/12/09 04:28:38;;;;;;;0.40;0.17;;;15.80;62.90;;;;;;5035923;28;20067;-22
2021/12/09 04:31:04;;;;;;;0.40;0.30;;;15.80;62.90;;;;;;5054348;28;20055;-22
2021/12/09 04:33:29;;;;;;;0.30;0.30;;;15.80;62.90;;;;;;5054435;28;20037;-24
2021/12/09 04:35:56;;;;;;;0.30;0.30;;;15.80;62.80;;;;;;5055209;28;20045;-28
2021/12/09 04:38:21;;;;;;;0.22;0.20;;;15.80;62.80;;;;;;5058222;28;20049;-22
2021/12/09 04:40:47;;;;;;;0.38;0.17;;;15.80;62.80;;;;;;5060518;28;20399;-26
2021/12/09 04:43:12;;;;;;;0.43;0.32;;;15.80;62.80;;;;;;5058025;28;20048;-24
2021/12/09 04:45:40;;;;;;;0.98;0.20;;;15.80;62.80;;;;;;5057254;28;20408;-24
2021/12/09 04:48:06;;;;;;;0.10;0.10;;;15.80;62.80;;;;;;5057790;28;20052;-25
2021/12/09 04:50:32;;;;;;;1.17;0.30;;;15.80;62.80;;;;;;5056916;28;20405;-27
2021/12/09 04:52:58;;;;;;;0.50;0.40;;;15.80;63.50;;;;;;5057807;28;20120;-22
2021/12/09 04:55:24;;;;;;;0.38;0.20;;;15.80;62.70;;;;;;5057768;28;20049;-28
2021/12/09 04:57:50;;;;;;;0.30;0.20;;;15.80;62.60;;;;;;5057072;28;20037;-25
2021/12/09 05:00:19;;;;;;;0.50;0.30;;;15.80;62.70;;;;;;5057722;28;20037;-23
2021/12/09 05:03:06;;;;;;;0.43;0.20;;;15.80;62.70;;;;;;5057093;28;20561;-23
2021/12/09 05:05:38;;;;;;;0.30;0.15;;;15.80;62.70;;;;;;5056634;28;20033;-24
2021/12/09 05:08:05;;;;;;;0.30;0.28;;;15.80;62.70;;;;;;5057640;28;20047;-27
2021/12/09 05:10:35;;;;;;;0.20;0.20;;;15.80;62.60;;;;;;5057467;28;20791;-25
2021/12/09 05:13:03;;;;;;;0.30;0.30;;;15.80;62.60;;;;;;5064582;28;20064;-28
2021/12/09 05:15:29;;;;;;;0.28;0.28;;;15.80;62.60;;;;;;5057335;28;20037;-20
2021/12/09 05:17:54;;;;;;;0.52;0.35;;;15.80;62.60;;;;;;5056603;28;20044;-27
2021/12/09 05:20:20;;;;;;;0.85;0.30;;;15.80;62.60;;;;;;5056952;28;20501;-28
2021/12/09 05:22:45;;;;;;;0.28;0.20;;;15.80;62.70;;;;;;5056520;28;20045;-26
2021/12/09 05:25:11;;;;;;;0.35;0.30;;;15.80;62.60;;;;;;5057250;28;20106;-22
2021/12/09 05:27:38;;;;;;;0.35;0.20;;;15.80;62.60;;;;;;5048215;28;20038;-26
2021/12/09 05:30:07;;;;;;;0.30;0.30;;;15.80;62.60;;;;;;5028542;28;20046;-26
2021/12/09 05:32:33;;;;;;;0.47;0.30;;;15.80;62.60;;;;;;5026256;28;20042;-25
2021/12/09 05:34:59;;;;;;;0.40;0.40;;;15.80;62.60;;;;;;5031576;28;20714;-27
2021/12/09 05:37:25;;;;;;;0.20;0.15;;;15.80;63.40;;;;;;5041696;28;20096;-23
2021/12/09 05:39:52;;;;;;;0.30;0.20;;;15.80;62.60;;;;;;5036303;28;20037;-25
2021/12/09 05:42:19;;;;;;;0.25;0.25;;;15.70;62.60;;;;;;5036966;28;20052;-29
2021/12/09 05:44:44;;;;;;;0.30;0.30;;;15.80;62.50;;;;;;5036385;28;20048;-26
2021/12/09 05:47:12;;;;;;;0.43;0.20;;;15.80;62.50;;;;;;5036038;28;20062;-27
2021/12/09 05:49:41;;;;;;;0.30;0.30;;;15.70;62.60;;;;;;5036117;28;20096;-22
2021/12/09 05:52:07;;;;;;;0.20;0.20;;;15.80;62.50;;;;;;5036809;28;20050;-24
2021/12/09 05:54:33;;;;;;;0.30;0.20;;;15.70;62.50;;;;;;5036825;28;20850;-23
2021/12/09 05:56:59;;;;;;;0.10;0.10;;;15.80;62.60;;;;;;5036146;28;20041;-26
2021/12/09 05:59:25;;;;;;;0.40;0.20;;;15.70;62.50;;;;;;5036376;28;20490;-24
2021/12/09 06:01:51;;;;;;;0.10;0.10;;;15.70;62.60;;;;;;5035589;28;20051;-22
2021/12/09 06:04:16;;;;;;;1.33;0.20;;;15.70;62.60;;;;;;5036426;28;20128;-24
2021/12/09 06:06:42;;;;;;;0.20;0.15;;;15.70;62.50;;;;;;5035778;28;20045;-21
2021/12/09 06:09:09;;;;;;;0.93;0.20;;;15.70;62.50;;;;;;5036548;28;20049;-21
2021/12/09 06:11:35;;;;;;;0.20;0.10;;;15.70;62.50;;;;;;5036356;28;20448;-29
2021/12/09 06:14:01;;;;;;;0.20;0.20;;;15.70;62.60;;;;;;5036081;28;20136;-21
2021/12/09 06:16:27;;;;;;;0.47;0.25;;;15.80;62.50;;;;;;5036354;28;20038;-26
2021/12/09 06:18:52;;;;;;;0.55;0.30;;;15.80;62.40;;;;;;5035813;28;20393;-22
2021/12/09 06:21:19;;;;;;;0.20;0.20;;;15.80;62.30;;;;;;5035843;28;20041;-24
2021/12/09 06:23:45;;;;;;;0.20;0.20;;;15.80;62.40;;;;;;5035554;28;20049;-22
2021/12/09 06:26:11;;;;;;;0.40;0.20;;;15.70;62.50;;;;;;5036302;28;20045;-23
2021/12/09 06:28:38;;;;;;;0.25;0.20;;;15.80;62.40;;;;;;5043698;28;20402;-25
2021/12/09 06:31:04;;;;;;;0.20;0.20;;;15.80;62.50;;;;;;5036098;28;20045;-21
2021/12/09 06:33:30;;;;;;;0.20;0.20;;;15.70;62.60;;;;;;5035984;28;20045;-21
2021/12/09 06:35:56;;;;;;;0.50;0.20;;;15.80;62.70;;;;;;5034907;28;20048;-21
2021/12/09 06:38:22;;;;;;;0.30;0.20;;;15.80;62.80;;;;;;5035770;28;20395;-23
2021/12/09 06:40:47;;;;;;;0.80;0.30;;;15.80;62.70;;;;;;5048959;28;20040;-24
2021/12/09 06:43:13;;;;;;;1.55;0.20;;;15.80;62.70;;;;;;5055805;28;20045;-23
2021/12/09 06:45:39;;;;;;;0.30;0.30;;;15.80;62.70;;;;;;5054900;28;20025;-21
2021/12/09 06:48:05;;;;;;;0.30;0.30;;;15.80;62.70;;;;;;5034278;28;20103;-21
2021/12/09 06:50:30;;;;;;;0.45;0.35;;;15.80;62.80;;;;;;5020188;28;20050;-23
2021/12/09 06:52:56;;;;;;;0.57;0.20;;;15.80;62.80;;;;;;5015266;28;20040;-28
2021/12/09 06:55:21;;;;;;;1.45;0.30;;;15.80;62.80;;;;;;4998898;28;20074;-26
2021/12/09 06:57:47;;;;;;;0.65;0.30;;;15.80;62.70;;;;;;4991184;28;20113;-23
2021/12/09 07:00:15;;;;;;;0.47;0.30;;;15.80;62.80;;;;;;4976980;28;20038;-23
2021/12/09 07:02:43;;;;;;;6.85;0.32;;;15.70;62.90;;;;;;4992971;28;20053;-24
2021/12/09 07:05:09;;;;;;;0.15;0.15;;;15.70;63.00;;;;;;4995990;28;20185;-21
2021/12/09 07:07:35;;;;;;;0.32;0.13;;;15.80;62.80;;;;;;4996152;28;20082;-25
2021/12/09 07:10:00;;;;;;;1.10;0.20;;;15.80;62.70;;;;;;4995541;28;20406;-28
2021/12/09 07:12:26;;;;;;;0.10;0.10;;;15.80;62.80;;;;;;4996172;28;20046;-30
2021/12/09 07:14:51;;;;;;;0.35;0.20;;;15.70;62.80;;;;;;4995425;28;20050;-21
2021/12/09 07:17:17;;;;;;;1.70;0.30;;;15.70;62.80;;;;;;4996027;28;20042;-29
2021/12/09 07:19:43;;;;;;;0.13;0.10;;;15.70;62.80;;;;;;4994961;28;20534;-25
2021/12/09 07:22:09;;;;;;;1.00;0.30;;;15.70;62.90;;;;;;4995913;28;20141;-28
2021/12/09 07:24:35;;;;;;;0.20;0.20;;;15.70;62.80;;;;;;4996083;28;20073;-28
2021/12/09 07:27:00;;;;;;;0.93;0.40;;;15.70;62.90;;;;;;4997980;28;20076;-25
2021/12/09 07:29:26;;;;;;;0.70;0.20;;;15.70;62.90;;;;;;5015596;28;20052;-28
2021/12/09 07:31:51;;;;;;;0.50;0.20;;;15.70;63.00;;;;;;5012962;28;20049;-22
2021/12/09 07:34:17;;;;;;;0.60;0.20;;;15.70;63.00;;;;;;5005877;28;20137;-29
2021/12/09 07:36:43;;;;;;;0.20;0.20;;;15.80;62.90;;;;;;5003180;28;20046;-25
2021/12/09 07:39:09;;;;;;;0.30;0.30;;;15.80;62.70;;;;;;5005459;28;20039;-26
2021/12/09 07:41:35;;;;;;;0.38;0.15;;;15.70;62.80;;;;;;5005078;28;20564;-25
2021/12/09 07:44:05;;;;;;;0.47;0.20;;;15.70;62.80;;;;;;5001196;28;20051;-28
2021/12/09 07:46:34;;;;;;;0.52;0.28;;;15.70;62.80;;;;;;4997787;28;20046;-23
2021/12/09 07:48:59;;;;;;;0.30;0.20;;;15.70;62.80;;;;;;5007897;28;20064;-25
2021/12/09 07:51:25;;;;;;;1.45;0.17;;;15.80;62.70;;;;;;5036033;28;20401;-24
2021/12/09 07:53:51;;;;;;;0.30;0.30;;;15.70;62.60;;;;;;5034006;28;20076;-26
2021/12/09 07:56:16;;;;;;;0.50;0.40;;;15.70;62.70;;;;;;5034904;28;20050;-30
2021/12/09 07:58:42;;;;;;;0.20;0.20;;;15.70;62.60;;;;;;5029498;28;20128;-36
2021/12/09 08:01:08;;;;;;;0.28;0.28;;;15.70;62.60;;;;;;5034846;28;20091;-26
2021/12/09 08:03:33;;;;;;;0.45;0.28;;;15.70;62.60;;;;;;5029101;28;20555;-28
2021/12/09 08:05:59;;;;;;;0.30;0.30;;;15.70;62.50;;;;;;5027804;28;20029;-23
2021/12/09 08:08:25;;;;;;;0.60;0.40;;;15.70;62.50;;;;;;5035816;28;20072;-29
2021/12/09 08:10:50;;;;;;;0.38;0.30;;;15.70;62.50;;;;;;5037341;28;20057;-23
2021/12/09 08:13:16;;;;;;;0.30;0.30;;;15.70;62.40;;;;;;5039092;28;20029;-24
2021/12/09 08:15:50;;;;;;;0.50;0.30;;;15.70;62.40;;;;;;5040100;28;20026;-25
2021/12/09 08:20:48;;;;;;;0.40;0.30;;;15.60;62.30;;;;;;5039850;28;20461;-25
2021/12/09 08:23:14;;;;;;;0.70;0.20;;;15.70;62.30;;;;;;5040033;28;20105;-21
2021/12/09 08:25:40;;;;;;;0.30;0.22;;;15.60;62.20;;;;;;5039892;28;20060;-26
2021/12/09 08:28:06;;;;;;;1.08;0.30;;;15.60;62.20;;;;;;5039804;28;20025;-22
2021/12/09 08:30:32;;;;;;;0.30;0.30;;;15.60;62.20;;;;;;5040065;28;20025;-22
2021/12/09 08:32:57;;;;;;;0.20;0.20;;;15.60;62.10;;;;;;5039853;28;20021;-22
2021/12/09 08:35:23;;;;;;;1.10;0.30;;;15.60;62.20;;;;;;5039504;28;20394;-22
2021/12/09 08:37:49;;;;;;;7.13;0.30;;;15.60;62.10;;;;;;5039855;28;20673;-24
2021/12/09 08:40:15;;;;;;;1.08;0.30;;;15.60;62.20;;;;;;5049059;28;20021;-22
2021/12/09 08:42:41;;;;;;;0.15;0.15;;;15.60;62.10;;;;;;5059654;28;20079;-22
2021/12/09 08:45:09;;;;;;;0.47;0.25;;;15.60;62.20;;;;;;5059541;28;20518;-27
2021/12/09 08:47:36;;;;;;;0.60;0.20;;;15.60;62.10;;;;;;5059445;28;20045;-22
2021/12/09 08:50:02;;;;;;;0.35;0.35;;;15.60;62.00;;;;;;5059179;28;20025;-24
2021/12/09 08:52:27;;;;;;;0.40;0.20;;;15.60;62.00;;;;;;5059478;28;20032;-23
2021/12/09 08:54:53;;;;;;;0.22;0.22;;;15.60;61.90;;;;;;5059462;28;20378;-28
2021/12/09 08:57:20;;;;;;;0.40;0.20;;;15.60;61.90;;;;;;5059412;28;20031;-22
2021/12/09 08:59:45;;;;;;;0.55;0.30;;;15.60;61.90;;;;;;5059547;28;20117;-23
2021/12/09 09:02:11;;;;;;;0.20;0.20;;;15.60;61.90;;;;;;5059226;28;20060;-24
2021/12/09 09:04:36;;;;;;;0.20;0.20;;;15.60;61.90;;;;;;5059204;28;20112;-27
2021/12/09 09:07:02;;;;;;;0.52;0.30;;;15.60;62.00;;;;;;5057825;28;20096;-26
2021/12/09 09:09:33;;;;;;;0.40;0.40;;;15.60;61.90;;;;;;5058949;28;20489;-28
2021/12/09 09:11:59;;;;;;;0.38;0.20;;;15.60;61.90;;;;;;5058922;28;20021;-21
2021/12/09 09:14:24;;;;;;;1.17;0.45;;;15.60;61.80;;;;;;5059076;28;20029;-26
2021/12/09 09:16:50;;;;;;;0.63;0.47;;;15.60;61.80;;;;;;5059075;28;20376;-24
2021/12/09 09:19:15;;;;;;;1.02;0.47;;;15.60;61.70;;;;;;5059119;28;20029;-25
2021/12/09 09:21:42;;;;;;;0.40;0.20;;;15.60;61.80;;;;;;5058600;28;20393;-25
2021/12/09 09:24:08;;;;;;;0.32;0.22;;;15.60;61.80;;;;;;5059122;28;20524;-23
2021/12/09 09:26:34;;;;;;;0.98;0.32;;;15.60;61.80;;;;;;5058852;28;20017;-22
2021/12/09 09:29:00;;;;;;;0.20;0.20;;;15.60;61.80;;;;;;5039048;28;20032;-24
2021/12/09 09:31:30;;;;;;;0.55;0.38;;;15.60;61.80;;;;;;5038911;28;20593;-22
2021/12/09 09:33:56;;;;;;;0.30;0.30;;;15.60;61.80;;;;;;5038835;28;20515;-29
2021/12/09 09:36:21;;;;;;;0.32;0.30;;;15.60;61.70;;;;;;5038457;28;20061;-28
2021/12/09 09:38:47;;;;;;;0.30;0.20;;;15.60;61.60;;;;;;5038715;28;20501;-26
2021/12/09 09:41:16;;;;;;;0.30;0.30;;;15.60;61.50;;;;;;5055697;28;20029;-25
2021/12/09 09:46:17;;;;;;;0.55;0.43;;;15.60;61.60;;;;;;5058728;28;20051;-29
2021/12/09 09:48:47;;;;;;;0.80;0.20;;;15.60;61.60;;;;;;5058361;28;20049;-24
2021/12/09 09:51:13;;;;;;;0.35;0.35;;;15.70;61.50;;;;;;5058564;28;20112;-26
2021/12/09 09:53:41;;;;;;;0.40;0.40;;;15.60;61.50;;;;;;5058390;28;20061;-23
2021/12/09 09:56:13;;;;;;;0.30;0.30;;;15.60;61.50;;;;;;5058485;28;20036;-25
2021/12/09 09:58:40;;;;;;;0.38;0.38;;;15.60;61.50;;;;;;5058072;28;20055;-26
2021/12/09 10:01:06;;;;;;;0.43;0.20;;;15.60;61.70;;;;;;5058150;28;20104;-24
2021/12/09 10:03:34;;;;;;;0.30;0.30;;;15.60;61.50;;;;;;5058052;28;20067;-24
2021/12/09 10:06:02;;;;;;;0.60;0.30;;;15.60;61.50;;;;;;5057888;28;20029;-26
2021/12/09 10:08:30;;;;;;;0.32;0.30;;;15.60;61.50;;;;;;5058000;28;20035;-26
2021/12/09 10:10:55;;;;;;;0.35;0.35;;;15.60;61.50;;;;;;5057086;28;20013;-26
2021/12/09 10:13:22;;;;;;;1.58;0.35;;;15.60;61.50;;;;;;5057956;28;20039;-27
2021/12/09 10:15:49;;;;;;;1.58;0.45;;;15.60;61.50;;;;;;5056439;28;20028;-24
2021/12/09 10:18:37;;;;;;;0.38;0.30;;;15.60;61.50;;;;;;5057864;28;20037;-30
2021/12/09 10:21:04;;;;;;;0.55;0.40;;;15.60;61.40;;;;;;5057507;28;20029;-26
2021/12/09 10:23:34;;;;;;;0.20;0.20;;;15.60;61.50;;;;;;5057777;28;20029;-25
2021/12/09 10:26:11;;;;;;;0.60;0.40;;;15.60;61.50;;;;;;5057690;28;20019;-24
2021/12/09 10:28:41;;;;;;;0.30;0.28;;;15.60;61.50;;;;;;5041267;28;20068;-26
2021/12/09 10:31:35;;;;;;;0.40;0.30;;;15.60;61.40;;;;;;5037450;28;20029;-22
2021/12/09 10:34:16;;;;;;;0.80;0.40;;;15.60;61.30;;;;;;5001231;28;20046;-28
2021/12/09 10:36:47;;;;;;;0.40;0.30;;;15.60;61.40;;;;;;5017621;28;20057;-26
2021/12/09 10:39:33;;;;;;;0.70;0.40;;;15.60;61.20;;;;;;5019887;28;20105;-25
2021/12/09 10:42:01;;;;;;;0.40;0.35;;;15.60;61.40;;;;;;5057155;28;20041;-22
2021/12/09 10:44:45;;;;;;;0.55;0.30;;;15.60;61.40;;;;;;5057451;28;20021;-24
2021/12/09 10:47:15;;;;;;;0.43;0.40;;;15.60;61.40;;;;;;5057319;28;20033;-21
2021/12/09 10:50:02;;;;;;;0.65;0.40;;;15.60;61.40;;;;;;5056867;28;20080;-21
2021/12/09 10:52:38;;;;;;;0.30;0.30;;;15.60;61.40;;;;;;5057285;28;20083;-23
2021/12/09 10:55:13;;;;;;;0.45;0.30;;;15.60;61.30;;;;;;5057197;28;20021;-21
2021/12/09 10:57:38;;;;;;;0.40;0.30;;;15.60;61.30;;;;;;5057175;28;20025;-22
2021/12/09 11:00:26;;;;;;;0.32;0.30;;;15.60;61.30;;;;;;5057308;28;20029;-21
2021/12/09 11:03:16;;;;;;;0.50;0.32;;;15.60;61.20;;;;;;5057192;28;20036;-21
2021/12/09 11:05:45;;;;;;;0.52;0.40;;;15.60;61.30;;;;;;5056657;28;20066;-20
2021/12/09 11:08:20;;;;;;;0.40;0.40;;;15.60;61.30;;;;;;5056998;28;20028;-21
2021/12/09 11:10:47;;;;;;;0.30;0.30;;;15.60;61.20;;;;;;5056927;28;20013;-24
2021/12/09 11:13:15;;;;;;;0.47;0.47;;;15.60;61.30;;;;;;5057033;28;20475;-24
2021/12/09 11:15:55;;;;;;;0.60;0.30;;;15.60;61.20;;;;;;5055139;28;20044;-21
2021/12/09 11:18:44;;;;;;;0.28;0.28;;;15.60;61.20;;;;;;5056833;28;20036;-20
2021/12/09 11:21:18;;;;;;;1.13;0.43;;;15.60;61.10;;;;;;5056124;28;20036;-23
2021/12/09 11:23:50;;;;;;;0.40;0.40;;;15.60;61.20;;;;;;5056624;28;20041;-23
2021/12/09 11:26:24;;;;;;;0.38;0.30;;;15.60;61.40;;;;;;5056077;28;20082;-21
2021/12/09 11:28:58;;;;;;;0.35;0.30;;;15.60;61.20;;;;;;5038209;28;20112;-23
2021/12/09 11:31:25;;;;;;;0.40;0.40;;;15.60;61.20;;;;;;5036731;28;20037;-23
2021/12/09 11:33:55;;;;;;;1.02;0.43;;;15.60;61.10;;;;;;5036562;28;20096;-22
2021/12/09 11:36:45;;;;;;;0.30;0.20;;;15.60;61.10;;;;;;5036244;28;20391;-26
2021/12/09 11:39:20;;;;;;;0.40;0.30;;;15.60;61.20;;;;;;5037339;28;20108;-21
2021/12/09 11:41:46;;;;;;;0.60;0.40;;;15.60;61.20;;;;;;5056448;28;20075;-24
2021/12/09 11:44:12;;;;;;;0.35;0.25;;;15.60;61.00;;;;;;5056679;28;20037;-24
2021/12/09 11:46:40;;;;;;;0.40;0.40;;;15.60;61.10;;;;;;5059527;28;20074;-22
2021/12/09 11:49:05;;;;;;;0.60;0.30;;;15.60;61.10;;;;;;5060395;28;20056;-21
2021/12/09 11:51:31;;;;;;;0.30;0.30;;;15.60;61.10;;;;;;5060331;28;20029;-24
2021/12/09 11:53:59;;;;;;;0.30;0.30;;;15.60;61.00;;;;;;5060641;28;20033;-28
2021/12/09 12:06:37;;;;;;;0.30;0.30;;;15.60;61.10;;;;;;5059471;28;20125;-25
2021/12/09 12:15:29;;;;;;;0.70;0.50;;;15.60;61.10;;;;;;5060266;28;20397;-28
2021/12/09 12:41:01;;;;;;;1.08;0.50;;;15.60;61.10;;;;;;5050810;28;20116;-22
2021/12/09 12:43:30;;;;;;;0.30;0.22;;;15.60;61.10;;;;;;5057899;28;20041;-28
2021/12/09 12:51:04;;;;;;;0.52;0.40;;;15.60;61.10;;;;;;5059319;28;20052;-23
2021/12/09 12:53:36;;;;;;;0.55;0.30;;;15.60;61.10;;;;;;5059541;28;20024;-24
2021/12/09 12:56:15;;;;;;;0.65;0.35;;;15.60;61.00;;;;;;5058825;28;20025;-23
2021/12/09 12:59:04;;;;;;;0.60;0.50;;;15.60;61.10;;;;;;5059371;28;20024;-26
2021/12/09 13:01:30;;;;;;;0.40;0.40;;;15.50;61.10;;;;;;5059079;28;20049;-24
2021/12/09 13:04:00;;;;;;;0.38;0.32;;;15.50;61.10;;;;;;5059344;28;20079;-22
2021/12/09 13:06:43;;;;;;;0.38;0.28;;;15.50;61.10;;;;;;5059072;28;20108;-24
2021/12/09 13:12:06;;;;;;;0.55;0.30;;;15.60;61.00;;;;;;5059112;28;20078;-21
2021/12/09 13:14:35;;;;;;;0.65;0.35;;;15.60;61.10;;;;;;5059106;28;20091;-23
2021/12/09 13:22:09;;;;;;;0.40;0.40;;;15.50;61.10;;;;;;5059039;28;20434;-25
2021/12/09 13:27:17;;;;;;;0.30;0.30;;;15.50;61.00;;;;;;5054535;28;20028;-21
2021/12/09 13:30:03;;;;;;;0.43;0.43;;;15.50;61.00;;;;;;5038871;28;20552;-23
2021/12/09 13:49:08;;;;;;;0.38;0.20;;;15.50;61.10;;;;;;5058330;28;20456;-25
2021/12/09 13:54:25;;;;;;;0.40;0.30;;;15.50;61.00;;;;;;5058551;28;20384;-24
2021/12/09 13:57:17;;;;;;;0.30;0.30;;;15.60;61.10;;;;;;5058279;28;20039;-21
2021/12/09 13:59:42;;;;;;;0.30;0.30;;;15.50;61.00;;;;;;5056042;28;20037;-23
2021/12/09 14:02:14;;;;;;;0.57;0.35;;;15.60;61.10;;;;;;5058084;28;20028;-21
2021/12/09 14:04:39;;;;;;;0.32;0.30;;;15.50;61.00;;;;;;5057871;28;20029;-23
2021/12/09 14:07:16;;;;;;;0.40;0.30;;;15.50;61.10;;;;;;5058000;28;20485;-21
2021/12/09 14:09:45;;;;;;;0.77;0.30;;;15.50;61.10;;;;;;5057393;28;20505;-26
2021/12/09 14:12:10;;;;;;;0.30;0.15;;;15.50;61.10;;;;;;5058049;28;20037;-20